Time;durP1;ratioP1;P1;durP2;ratioP2;P2;SDS_P1;SDS_P2;PMS_P1;PMS_P2;Temp;Humidity;BMP_temperature;BMP_pressure;BME280_temperature;BME280_humidity;BME280_pressure;Samples;Min_cycle;Max_cycle;Signal;HPM_P1;HPM_P2
2024/01/24 00:00:04;;;;;;;0.50;0.50;;;14.80;99.90;;;;;;7381297;19;20082;-75
2024/01/24 00:02:33;;;;;;;1.65;0.68;;;14.80;99.90;;;;;;7381449;19;20462;-76
2024/01/24 00:05:02;;;;;;;0.50;0.50;;;14.90;99.90;;;;;;7380887;19;20724;-76
2024/01/24 00:07:31;;;;;;;1.48;0.40;;;14.90;99.90;;;;;;7387150;19;20017;-76
2024/01/24 00:10:00;;;;;;;0.52;0.50;;;14.90;99.90;;;;;;7401778;19;20017;-76
2024/01/24 00:12:28;;;;;;;1.17;0.70;;;14.70;99.90;;;;;;7380236;19;20002;-76
2024/01/24 00:15:03;;;;;;;0.73;0.40;;;14.80;99.90;;;;;;7380366;19;20323;-76
2024/01/24 00:17:32;;;;;;;0.40;0.40;;;14.90;99.90;;;;;;7379263;19;20003;-76
2024/01/24 00:20:01;;;;;;;1.30;0.60;;;15.00;99.90;;;;;;7380470;19;20002;-76
2024/01/24 00:22:30;;;;;;;1.48;0.52;;;15.00;99.90;;;;;;7400098;19;20402;-75
2024/01/24 00:24:59;;;;;;;4.03;0.30;;;14.80;99.90;;;;;;7401434;19;20015;-75
2024/01/24 00:27:27;;;;;;;0.50;0.50;;;14.80;99.90;;;;;;7379823;19;20015;-75
2024/01/24 00:29:56;;;;;;;1.02;0.50;;;14.70;99.90;;;;;;7379967;19;20078;-76
2024/01/24 00:32:27;;;;;;;0.73;0.50;;;14.70;99.90;;;;;;7380444;19;20066;-76
2024/01/24 00:34:56;;;;;;;4.88;0.63;;;14.90;99.90;;;;;;7379787;19;20781;-76
2024/01/24 00:37:25;;;;;;;1.77;0.52;;;14.80;99.90;;;;;;7402013;19;20015;-76
2024/01/24 00:39:53;;;;;;;1.48;0.50;;;14.80;99.90;;;;;;7379176;19;20003;-76
2024/01/24 00:42:22;;;;;;;1.45;0.40;;;15.00;99.90;;;;;;7379455;19;20007;-76
2024/01/24 00:44:52;;;;;;;0.73;0.40;;;15.10;99.90;;;;;;7379696;19;20011;-76
2024/01/24 00:47:21;;;;;;;0.95;0.50;;;15.00;99.90;;;;;;7379926;19;20020;-75
2024/01/24 00:49:55;;;;;;;1.55;0.63;;;15.10;99.90;;;;;;7379054;19;20197;-75
2024/01/24 00:52:23;;;;;;;0.82;0.45;;;15.10;99.90;;;;;;7401302;19;20006;-75
2024/01/24 00:54:52;;;;;;;3.10;0.30;;;15.20;99.90;;;;;;7378278;19;20019;-75
2024/01/24 00:57:24;;;;;;;1.00;0.50;;;14.90;99.90;;;;;;7379123;19;20237;-76
2024/01/24 00:59:52;;;;;;;3.85;0.40;;;14.90;99.90;;;;;;7379290;19;20367;-77
2024/01/24 01:02:21;;;;;;;0.30;0.30;;;15.00;99.90;;;;;;7377488;19;20379;-76
2024/01/24 01:04:52;;;;;;;0.35;0.30;;;15.00;99.90;;;;;;7377899;19;20099;-76
2024/01/24 01:07:18;;;;;;;0.75;0.40;;;14.90;99.90;;;;;;7402196;19;20009;-76
2024/01/24 01:09:47;;;;;;;0.40;0.40;;;14.90;99.90;;;;;;7388530;19;20035;-77
2024/01/24 01:12:16;;;;;;;3.15;0.60;;;15.00;99.90;;;;;;7386757;19;20066;-75
2024/01/24 01:14:46;;;;;;;0.55;0.28;;;15.10;99.90;;;;;;7386601;19;20006;-75
2024/01/24 01:17:17;;;;;;;0.43;0.40;;;15.20;99.90;;;;;;7386644;19;20016;-74
2024/01/24 01:19:47;;;;;;;0.75;0.30;;;15.10;99.90;;;;;;7386787;19;20016;-75
2024/01/24 01:22:18;;;;;;;0.38;0.38;;;15.20;99.90;;;;;;7408654;19;20010;-75
2024/01/24 01:24:47;;;;;;;1.23;0.57;;;15.10;99.90;;;;;;7385694;19;20006;-75
2024/01/24 01:27:16;;;;;;;0.22;0.22;;;15.00;99.90;;;;;;7386323;19;20265;-74
2024/01/24 01:29:45;;;;;;;1.15;0.30;;;15.00;99.90;;;;;;7384970;19;20453;-75
2024/01/24 01:32:13;;;;;;;0.50;0.28;;;14.80;99.90;;;;;;7394214;19;20007;-75
2024/01/24 01:34:42;;;;;;;4.13;0.40;;;15.00;99.90;;;;;;7393468;19;20028;-76
2024/01/24 01:37:11;;;;;;;1.13;0.40;;;14.80;99.90;;;;;;7415261;19;20103;-76
2024/01/24 01:39:42;;;;;;;1.48;0.43;;;14.80;99.90;;;;;;7392394;19;20207;-77
2024/01/24 01:42:10;;;;;;;0.30;0.30;;;14.90;99.90;;;;;;7393195;19;20020;-76
2024/01/24 01:44:47;;;;;;;0.98;0.40;;;14.90;99.90;;;;;;7391032;19;20006;-76
2024/01/24 01:47:16;;;;;;;0.20;0.20;;;14.80;99.90;;;;;;7387723;19;20010;-76
2024/01/24 01:49:46;;;;;;;1.17;0.20;;;14.90;99.90;;;;;;7384197;19;20387;-76
2024/01/24 01:52:15;;;;;;;0.20;0.20;;;15.20;99.90;;;;;;7406323;19;20010;-76
2024/01/24 01:54:48;;;;;;;1.00;0.38;;;15.10;99.90;;;;;;7384823;19;20062;-75
2024/01/24 01:57:19;;;;;;;0.60;0.40;;;15.30;99.90;;;;;;7384377;19;20023;-75
2024/01/24 01:59:48;;;;;;;0.80;0.30;;;15.20;99.90;;;;;;7385233;19;20007;-76
2024/01/24 02:02:18;;;;;;;0.40;0.20;;;15.00;99.90;;;;;;7385777;19;20078;-76
2024/01/24 02:04:46;;;;;;;0.20;0.20;;;15.00;99.90;;;;;;7383382;19;20433;-76
2024/01/24 02:07:15;;;;;;;1.42;0.28;;;15.00;99.90;;;;;;7406257;19;20003;-76
2024/01/24 02:09:46;;;;;;;1.65;0.30;;;15.10;99.90;;;;;;7383242;19;20003;-75
2024/01/24 02:12:15;;;;;;;;;;;15.10;99.90;;;;;;7384824;19;20404;-76
2024/01/24 02:14:44;;;;;;;0.75;0.30;;;15.00;99.90;;;;;;7384837;19;19920;-75
2024/01/24 02:17:12;;;;;;;0.28;0.28;;;15.00;99.90;;;;;;7385516;19;20023;-74
2024/01/24 02:19:42;;;;;;;1.52;0.22;;;15.10;99.90;;;;;;7383189;19;20019;-75
2024/01/24 02:22:11;;;;;;;0.40;0.40;;;15.10;99.90;;;;;;7405776;19;20020;-74
2024/01/24 02:24:43;;;;;;;5.50;0.55;;;14.80;99.90;;;;;;7383537;19;19998;-74
2024/01/24 02:27:11;;;;;;;1.40;0.20;;;15.00;99.90;;;;;;7383959;19;20086;-75
2024/01/24 02:29:40;;;;;;;0.25;0.20;;;14.90;99.90;;;;;;7382634;19;20289;-76
2024/01/24 02:32:09;;;;;;;3.13;0.30;;;15.10;99.90;;;;;;7384053;19;20024;-75
2024/01/24 02:34:38;;;;;;;0.65;0.30;;;14.90;99.90;;;;;;7393428;19;20014;-75
2024/01/24 02:37:06;;;;;;;0.47;0.25;;;14.80;99.90;;;;;;7404919;19;20042;-75
2024/01/24 02:39:36;;;;;;;2.78;0.28;;;14.70;99.90;;;;;;7382992;19;20006;-75
2024/01/24 02:42:09;;;;;;;1.02;0.30;;;14.90;99.90;;;;;;7384078;19;20007;-76
2024/01/24 02:44:38;;;;;;;2.38;0.40;;;14.90;99.90;;;;;;7383425;19;20011;-75
2024/01/24 02:47:07;;;;;;;0.52;0.30;;;15.10;99.90;;;;;;7383432;19;20054;-75
2024/01/24 02:49:35;;;;;;;0.17;0.17;;;14.70;99.90;;;;;;7402100;19;20009;-76
2024/01/24 02:52:04;;;;;;;1.48;0.40;;;14.70;99.90;;;;;;7382444;19;20016;-74
2024/01/24 02:54:33;;;;;;;0.20;0.20;;;14.80;99.90;;;;;;7382663;19;20161;-74
2024/01/24 02:57:01;;;;;;;1.10;0.30;;;14.90;99.90;;;;;;7383247;19;20020;-75
2024/01/24 02:59:33;;;;;;;0.30;0.30;;;14.90;99.90;;;;;;7382944;19;20015;-75
2024/01/24 03:02:01;;;;;;;;;;;15.00;99.90;;;;;;7383966;19;20261;-75
2024/01/24 03:04:30;;;;;;;0.20;0.20;;;15.10;99.90;;;;;;7404311;19;19911;-75
2024/01/24 03:06:59;;;;;;;1.20;0.20;;;15.00;99.90;;;;;;7381907;19;20010;-75
2024/01/24 03:09:27;;;;;;;4.68;0.30;;;15.00;99.90;;;;;;7381816;19;20079;-75
2024/01/24 03:11:56;;;;;;;0.85;0.35;;;15.00;99.90;;;;;;7382507;19;20006;-75
2024/01/24 03:14:25;;;;;;;0.75;0.30;;;15.10;99.90;;;;;;7381687;19;20011;-75
2024/01/24 03:16:56;;;;;;;0.25;0.20;;;15.10;99.90;;;;;;7382204;19;20062;-75
2024/01/24 03:19:24;;;;;;;4.15;0.40;;;15.10;99.90;;;;;;7403397;19;20014;-75
2024/01/24 03:21:53;;;;;;;0.32;0.20;;;15.10;99.90;;;;;;7381668;19;20421;-75
2024/01/24 03:24:22;;;;;;;0.65;0.20;;;15.10;99.90;;;;;;7381665;19;20260;-75
2024/01/24 03:26:50;;;;;;;0.30;0.22;;;15.00;99.90;;;;;;7381704;19;20015;-75
2024/01/24 03:29:19;;;;;;;1.95;0.25;;;15.10;99.90;;;;;;7381842;19;20003;-75
2024/01/24 03:31:48;;;;;;;1.65;0.20;;;15.10;99.90;;;;;;7378950;19;20054;-75
2024/01/24 03:34:19;;;;;;;0.22;0.20;;;15.00;99.90;;;;;;7400887;19;20062;-75
2024/01/24 03:36:48;;;;;;;3.83;0.20;;;15.00;99.90;;;;;;7381197;19;20423;-75
2024/01/24 03:39:16;;;;;;;0.25;0.20;;;14.90;99.90;;;;;;7383707;19;20070;-75
2024/01/24 03:41:45;;;;;;;0.65;0.30;;;14.90;99.90;;;;;;7381339;19;20006;-75
2024/01/24 03:44:15;;;;;;;0.10;0.10;;;15.10;99.90;;;;;;7382078;19;20003;-75
2024/01/24 03:46:44;;;;;;;0.75;0.20;;;15.00;99.90;;;;;;7400095;19;20070;-75
2024/01/24 03:49:13;;;;;;;0.85;0.28;;;15.10;99.90;;;;;;7402778;19;20393;-75
2024/01/24 03:51:44;;;;;;;0.20;0.20;;;15.20;99.90;;;;;;7380766;19;20066;-75
2024/01/24 03:54:13;;;;;;;0.10;0.10;;;15.20;99.90;;;;;;7380740;19;20101;-75
2024/01/24 03:56:42;;;;;;;0.20;0.20;;;15.20;99.90;;;;;;7381167;19;20075;-75
2024/01/24 03:59:10;;;;;;;0.77;0.20;;;15.00;99.90;;;;;;7380376;19;20015;-75
2024/01/24 04:01:39;;;;;;;0.10;0.10;;;15.00;99.90;;;;;;7401680;19;20066;-75
2024/01/24 04:04:08;;;;;;;1.27;0.30;;;15.00;99.90;;;;;;7379939;19;20059;-75
2024/01/24 04:06:37;;;;;;;0.10;0.10;;;15.20;99.90;;;;;;7379644;19;20012;-75
2024/01/24 04:09:09;;;;;;;0.40;0.20;;;15.20;99.90;;;;;;7382673;19;20013;-75
2024/01/24 04:11:39;;;;;;;;;;;15.20;99.90;;;;;;7384910;19;20011;-76
2024/01/24 04:14:09;;;;;;;0.47;0.47;;;15.30;99.90;;;;;;7383037;19;19907;-76
2024/01/24 04:16:41;;;;;;;0.35;0.20;;;15.20;99.90;;;;;;7405453;19;20011;-76
2024/01/24 04:19:10;;;;;;;0.40;0.20;;;15.20;99.90;;;;;;7385462;19;20003;-75
2024/01/24 04:21:43;;;;;;;0.25;0.25;;;15.20;99.90;;;;;;7387163;19;20039;-75
2024/01/24 04:24:15;;;;;;;0.30;0.22;;;15.20;99.90;;;;;;7381446;19;20086;-74
2024/01/24 04:26:44;;;;;;;0.25;0.15;;;15.00;99.90;;;;;;7380168;19;20003;-74
2024/01/24 04:29:13;;;;;;;0.70;0.20;;;14.90;99.90;;;;;;7380260;19;20007;-75
2024/01/24 04:31:41;;;;;;;0.22;0.20;;;15.10;99.90;;;;;;7400262;19;20146;-75
2024/01/24 04:34:10;;;;;;;0.70;0.30;;;15.00;99.90;;;;;;7378934;19;20007;-76
2024/01/24 04:36:39;;;;;;;0.10;0.10;;;15.00;99.90;;;;;;7379495;19;20241;-76
2024/01/24 04:39:07;;;;;;;0.20;0.20;;;14.90;99.90;;;;;;7378124;19;20379;-75
2024/01/24 04:41:39;;;;;;;3.20;0.30;;;15.00;99.90;;;;;;7379025;19;20006;-74
2024/01/24 04:44:07;;;;;;;4.38;0.47;;;15.20;99.90;;;;;;7385909;19;20067;-75
2024/01/24 04:46:36;;;;;;;1.23;0.30;;;15.30;99.90;;;;;;7407844;19;20236;-75
2024/01/24 04:49:07;;;;;;;0.85;0.35;;;15.20;99.90;;;;;;7386335;19;20010;-75
2024/01/24 04:51:36;;;;;;;0.10;0.10;;;15.40;99.90;;;;;;7386382;19;20003;-76
2024/01/24 04:54:05;;;;;;;1.63;0.30;;;15.50;99.90;;;;;;7386732;19;20006;-75
2024/01/24 04:56:35;;;;;;;0.77;0.22;;;15.40;99.90;;;;;;7386446;19;20070;-76
2024/01/24 04:59:07;;;;;;;0.20;0.20;;;15.50;99.90;;;;;;7386480;19;20054;-75
2024/01/24 05:01:35;;;;;;;0.45;0.20;;;15.20;99.90;;;;;;7407997;19;20031;-75
2024/01/24 05:04:05;;;;;;;0.80;0.35;;;15.40;99.90;;;;;;7385962;19;20007;-75
2024/01/24 05:06:35;;;;;;;0.45;0.20;;;15.40;99.90;;;;;;7385855;19;20731;-75
2024/01/24 05:09:04;;;;;;;0.73;0.30;;;15.60;99.90;;;;;;7387098;19;20266;-75
2024/01/24 05:11:33;;;;;;;1.80;0.28;;;15.50;99.90;;;;;;7384479;19;20007;-75
2024/01/24 05:14:02;;;;;;;0.85;0.20;;;15.60;99.90;;;;;;7383178;19;20019;-75
2024/01/24 05:16:33;;;;;;;1.05;0.30;;;15.40;99.90;;;;;;7407511;19;20002;-75
2024/01/24 05:19:02;;;;;;;0.40;0.40;;;15.60;99.90;;;;;;7384603;19;20006;-75
2024/01/24 05:21:31;;;;;;;1.13;0.40;;;15.50;99.90;;;;;;7385004;19;20042;-75
2024/01/24 05:23:59;;;;;;;2.38;0.30;;;15.60;99.90;;;;;;7385259;19;20019;-75
2024/01/24 05:26:28;;;;;;;2.58;0.30;;;15.60;99.90;;;;;;7385207;19;20023;-76
2024/01/24 05:28:57;;;;;;;0.43;0.25;;;15.50;99.90;;;;;;7384788;19;20007;-75
2024/01/24 05:31:25;;;;;;;1.92;0.30;;;15.40;99.90;;;;;;7405536;19;20072;-75
2024/01/24 05:33:57;;;;;;;1.10;0.32;;;15.50;99.90;;;;;;7383398;19;20289;-75
2024/01/24 05:36:25;;;;;;;1.45;0.30;;;15.30;99.90;;;;;;7384584;19;20003;-75
2024/01/24 05:38:54;;;;;;;1.80;0.15;;;15.40;99.90;;;;;;7384628;19;20281;-75
2024/01/24 05:41:23;;;;;;;0.30;0.30;;;15.50;99.90;;;;;;7385073;19;20007;-75
2024/01/24 05:43:51;;;;;;;0.20;0.20;;;15.50;99.90;;;;;;7403614;19;20284;-75
2024/01/24 05:46:20;;;;;;;0.38;0.30;;;15.40;99.90;;;;;;7384600;19;20010;-75
2024/01/24 05:48:50;;;;;;;1.95;0.20;;;15.50;99.90;;;;;;7384032;19;20044;-75
2024/01/24 05:51:21;;;;;;;3.03;0.30;;;15.30;99.90;;;;;;7383281;19;20007;-74
2024/01/24 05:53:50;;;;;;;0.13;0.13;;;15.50;99.90;;;;;;7383611;19;20003;-74
2024/01/24 05:56:20;;;;;;;0.82;0.40;;;15.50;99.90;;;;;;7384555;19;20014;-75
2024/01/24 05:58:49;;;;;;;1.15;0.50;;;15.60;99.90;;;;;;7407427;19;20011;-74
2024/01/24 06:01:18;;;;;;;1.65;0.30;;;15.70;99.90;;;;;;7384777;19;19999;-74
2024/01/24 06:03:49;;;;;;;1.38;0.43;;;15.60;99.90;;;;;;7384412;19;20066;-75
2024/01/24 06:06:21;;;;;;;2.15;0.30;;;15.60;99.90;;;;;;7385789;19;20003;-75
2024/01/24 06:08:49;;;;;;;0.40;0.30;;;15.60;99.90;;;;;;7388047;19;20019;-75
2024/01/24 06:11:22;;;;;;;4.25;0.35;;;15.60;99.90;;;;;;7389602;19;20014;-74
2024/01/24 06:13:54;;;;;;;1.02;0.30;;;15.60;99.90;;;;;;7410781;19;20022;-74
2024/01/24 06:16:23;;;;;;;1.17;0.50;;;15.70;99.90;;;;;;7390422;19;20006;-74
2024/01/24 06:18:54;;;;;;;0.82;0.35;;;15.80;99.90;;;;;;7389763;19;20012;-74
2024/01/24 06:21:25;;;;;;;1.85;0.38;;;15.80;99.90;;;;;;7390741;19;20066;-74
2024/01/24 06:23:55;;;;;;;3.15;0.80;;;15.50;99.90;;;;;;7391323;19;20023;-74
2024/01/24 06:26:26;;;;;;;2.00;0.47;;;15.60;99.90;;;;;;7389372;19;20006;-74
2024/01/24 06:29:04;;;;;;;2.78;0.45;;;15.70;99.90;;;;;;7408558;19;20384;-74
2024/01/24 06:31:32;;;;;;;5.75;0.60;;;15.60;99.90;;;;;;7409234;19;20080;-73
2024/01/24 06:34:05;;;;;;;2.88;0.40;;;15.60;99.90;;;;;;7389150;19;20003;-73
2024/01/24 06:36:36;;;;;;;2.20;0.38;;;15.60;99.90;;;;;;7387038;19;20014;-73
2024/01/24 06:39:06;;;;;;;;;;;15.30;99.90;;;;;;7387455;19;20006;-73
2024/01/24 06:41:37;;;;;;;0.90;0.40;;;15.50;99.90;;;;;;7385149;19;20159;-73
2024/01/24 06:44:07;;;;;;;0.50;0.30;;;15.40;99.90;;;;;;7385393;19;20365;-73
2024/01/24 06:46:44;;;;;;;3.83;0.60;;;15.40;99.90;;;;;;7408669;19;20438;-73
2024/01/24 06:49:13;;;;;;;3.63;0.60;;;15.60;99.90;;;;;;7387805;19;20219;-74
2024/01/24 06:51:45;;;;;;;8.07;0.60;;;15.70;99.90;;;;;;7386694;19;20014;-75
2024/01/24 06:54:14;;;;;;;2.47;0.60;;;15.50;99.90;;;;;;7387521;19;20304;-73
2024/01/24 06:56:43;;;;;;;0.80;0.20;;;15.50;99.90;;;;;;7387810;19;20376;-74
2024/01/24 06:59:13;;;;;;;3.42;0.45;;;15.50;99.90;;;;;;7389026;19;20023;-74
2024/01/24 07:01:42;;;;;;;1.85;0.45;;;15.50;99.90;;;;;;7406773;19;20003;-74
2024/01/24 07:04:11;;;;;;;1.55;0.30;;;15.70;99.90;;;;;;7381952;19;20050;-74
2024/01/24 07:06:40;;;;;;;1.80;0.30;;;15.70;99.90;;;;;;7381550;19;20017;-74
2024/01/24 07:09:11;;;;;;;3.28;0.32;;;15.80;99.90;;;;;;7381056;19;20011;-74
2024/01/24 07:11:41;;;;;;;5.65;0.60;;;15.80;99.90;;;;;;7381524;19;20027;-74
2024/01/24 07:14:09;;;;;;;1.50;0.43;;;15.70;99.90;;;;;;7381023;19;20021;-74
2024/01/24 07:16:38;;;;;;;4.05;0.60;;;15.80;99.90;;;;;;7403520;19;20017;-74
2024/01/24 07:19:07;;;;;;;1.95;0.50;;;15.50;99.90;;;;;;7381309;19;20094;-74
2024/01/24 07:21:36;;;;;;;2.35;0.57;;;15.40;99.90;;;;;;7381952;19;20017;-74
2024/01/24 07:24:06;;;;;;;1.02;0.50;;;15.50;99.90;;;;;;7384017;19;20013;-75
2024/01/24 07:26:38;;;;;;;4.75;0.75;;;15.50;99.90;;;;;;7381518;19;20010;-74
2024/01/24 07:29:06;;;;;;;1.77;0.70;;;15.50;99.90;;;;;;7381686;19;20087;-74
2024/01/24 07:31:35;;;;;;;4.75;1.00;;;15.50;99.90;;;;;;7402903;19;20002;-74
2024/01/24 07:34:04;;;;;;;2.08;0.65;;;15.20;99.90;;;;;;7380930;19;20070;-74
2024/01/24 07:36:33;;;;;;;3.15;0.70;;;15.10;99.90;;;;;;7381548;19;20306;-74
2024/01/24 07:38:59;;;;;;;1.05;0.52;;;15.00;99.90;;;;;;7381489;19;20002;-73
2024/01/24 07:41:27;;;;;;;6.57;0.90;;;15.30;99.90;;;;;;7380942;19;20349;-74
2024/01/24 07:44:00;;;;;;;6.00;0.80;;;15.40;99.90;;;;;;7402801;19;20007;-73
2024/01/24 07:46:32;;;;;;;4.43;0.70;;;15.40;99.90;;;;;;7380624;19;20003;-74
2024/01/24 07:49:01;;;;;;;3.30;0.68;;;15.40;99.90;;;;;;7380724;19;20080;-74
2024/01/24 07:51:30;;;;;;;6.03;0.75;;;15.50;99.90;;;;;;7380662;19;20481;-74
2024/01/24 07:53:58;;;;;;;5.32;0.85;;;15.50;99.90;;;;;;7380733;19;20238;-73
2024/01/24 07:56:27;;;;;;;2.35;0.75;;;15.60;99.90;;;;;;7381233;19;20007;-74
2024/01/24 07:58:58;;;;;;;1.50;0.70;;;15.60;99.90;;;;;;7402358;19;20014;-73
2024/01/24 08:01:27;;;;;;;5.18;1.02;;;15.60;99.90;;;;;;7379890;19;20036;-74
2024/01/24 08:03:56;;;;;;;1.65;0.63;;;15.70;99.90;;;;;;7380459;19;20019;-73
2024/01/24 08:06:24;;;;;;;6.40;0.98;;;15.60;99.90;;;;;;7380634;19;20019;-73
2024/01/24 08:08:53;;;;;;;3.97;0.70;;;15.40;99.90;;;;;;7380092;19;20385;-74
2024/01/24 08:11:23;;;;;;;11.48;1.30;;;15.50;99.90;;;;;;7380626;19;20022;-75
2024/01/24 08:13:51;;;;;;;5.80;0.80;;;15.60;99.90;;;;;;7400546;19;20006;-74
2024/01/24 08:16:23;;;;;;;5.80;1.00;;;15.50;99.90;;;;;;7379478;19;20094;-74
2024/01/24 08:18:52;;;;;;;8.38;1.10;;;15.50;99.90;;;;;;7378492;19;20010;-75
2024/01/24 08:21:21;;;;;;;3.22;0.70;;;15.50;99.90;;;;;;7380649;19;20379;-75
2024/01/24 08:23:50;;;;;;;3.15;0.70;;;15.50;99.90;;;;;;7380096;19;19998;-74
2024/01/24 08:26:18;;;;;;;3.20;0.73;;;15.50;99.90;;;;;;7380450;19;20036;-73
2024/01/24 08:28:47;;;;;;;3.15;0.63;;;15.30;99.90;;;;;;7400814;19;20059;-74
2024/01/24 08:31:16;;;;;;;5.88;0.90;;;15.50;99.90;;;;;;7379259;19;20028;-73
2024/01/24 08:33:48;;;;;;;7.30;0.98;;;15.50;99.90;;;;;;7380123;19;20009;-73
2024/01/24 08:36:17;;;;;;;8.27;0.95;;;15.50;99.90;;;;;;7379763;19;20107;-74
2024/01/24 08:38:46;;;;;;;2.42;0.95;;;15.40;99.90;;;;;;7379683;19;20058;-73
2024/01/24 08:41:14;;;;;;;8.23;1.20;;;15.50;99.90;;;;;;7379464;19;20381;-73
2024/01/24 08:43:43;;;;;;;9.68;1.52;;;15.60;99.90;;;;;;7400823;19;20023;-74
2024/01/24 08:46:12;;;;;;;10.85;1.63;;;15.40;99.90;;;;;;7379186;19;19999;-73
2024/01/24 08:48:41;;;;;;;6.20;1.42;;;15.40;99.90;;;;;;7379683;19;20011;-74
2024/01/24 08:51:15;;;;;;;15.52;1.73;;;15.20;99.90;;;;;;7379014;19;20255;-74
2024/01/24 08:53:43;;;;;;;7.82;1.85;;;15.00;99.90;;;;;;7379220;19;20373;-73
2024/01/24 08:56:12;;;;;;;11.82;1.75;;;15.10;99.90;;;;;;7378812;19;20015;-73
2024/01/24 08:58:42;;;;;;;12.23;2.10;;;15.20;99.90;;;;;;7399456;19;20256;-74
2024/01/24 09:01:11;;;;;;;15.25;2.38;;;15.30;99.90;;;;;;7378497;19;20011;-74
2024/01/24 09:03:40;;;;;;;14.15;2.17;;;15.30;99.90;;;;;;7377695;19;20323;-74
2024/01/24 09:06:10;;;;;;;19.80;2.85;;;15.00;99.90;;;;;;7378544;19;20023;-74
2024/01/24 09:08:43;;;;;;;16.42;2.67;;;15.00;99.90;;;;;;7378950;19;20003;-73
2024/01/24 09:11:11;;;;;;;15.00;2.50;;;15.00;99.90;;;;;;7377979;19;20444;-73
2024/01/24 09:13:40;;;;;;;16.77;3.08;;;14.90;99.90;;;;;;7398458;19;20070;-74
2024/01/24 09:16:09;;;;;;;18.17;2.97;;;15.00;99.90;;;;;;7379577;19;20007;-73
2024/01/24 09:18:38;;;;;;;28.67;2.85;;;14.50;99.90;;;;;;7378425;19;20024;-73
2024/01/24 09:21:07;;;;;;;29.30;3.53;;;14.70;99.90;;;;;;7378281;19;20292;-72
2024/01/24 09:23:35;;;;;;;33.08;4.05;;;14.80;99.90;;;;;;7381498;19;20010;-73
2024/01/24 09:26:07;;;;;;;18.33;3.30;;;14.60;99.90;;;;;;7404231;19;20261;-74
2024/01/24 09:28:35;;;;;;;25.00;3.47;;;14.50;99.90;;;;;;7384352;19;20006;-74
2024/01/24 09:31:04;;;;;;;30.33;3.72;;;14.60;99.90;;;;;;7390722;19;20438;-74
2024/01/24 09:33:33;;;;;;;20.95;3.85;;;14.60;99.90;;;;;;7389738;19;20006;-72
2024/01/24 09:36:01;;;;;;;25.73;4.00;;;14.90;99.90;;;;;;7390725;19;20329;-73
2024/01/24 09:38:30;;;;;;;26.15;3.80;;;15.00;99.90;;;;;;7385677;19;20013;-73
2024/01/24 09:41:01;;;;;;;25.90;3.60;;;14.60;99.90;;;;;;7407105;19;20024;-73
2024/01/24 09:43:39;;;;;;;24.00;4.63;;;14.60;99.90;;;;;;7384971;19;20007;-73
2024/01/24 09:46:15;;;;;;;31.42;4.03;;;14.80;99.90;;;;;;7385011;19;20020;-73
2024/01/24 09:48:46;;;;;;;30.85;4.38;;;14.60;99.90;;;;;;7385034;19;20019;-74
2024/01/24 09:51:15;;;;;;;33.95;4.18;;;14.70;99.90;;;;;;7384660;19;20016;-74
2024/01/24 09:53:48;;;;;;;31.02;4.57;;;14.70;99.90;;;;;;7382633;19;20315;-74
2024/01/24 09:56:20;;;;;;;24.60;4.18;;;14.70;99.90;;;;;;7384632;19;20013;-73
2024/01/24 09:58:51;;;;;;;25.55;4.07;;;14.90;99.90;;;;;;7406433;19;20027;-74
2024/01/24 10:01:21;;;;;;;21.70;4.00;;;14.80;99.90;;;;;;7384067;19;20374;-73
2024/01/24 10:03:51;;;;;;;25.42;3.58;;;14.90;99.90;;;;;;7383781;19;20019;-74
2024/01/24 10:06:19;;;;;;;30.48;4.10;;;14.70;99.90;;;;;;7384056;19;20161;-74
2024/01/24 10:08:48;;;;;;;29.55;4.60;;;14.80;99.90;;;;;;7384394;19;20010;-74
2024/01/24 10:11:17;;;;;;;29.77;4.70;;;14.50;99.90;;;;;;7383671;19;20063;-74
2024/01/24 10:13:45;;;;;;;30.85;5.03;;;14.60;99.90;;;;;;7407404;19;20023;-74
2024/01/24 10:16:18;;;;;;;42.90;4.18;;;14.70;99.90;;;;;;7383577;19;20007;-73
2024/01/24 10:18:47;;;;;;;44.00;5.15;;;14.90;99.90;;;;;;7383708;19;20007;-74
2024/01/24 10:21:16;;;;;;;47.40;5.15;;;15.10;99.90;;;;;;7383763;19;20009;-73
2024/01/24 10:23:44;;;;;;;30.90;4.80;;;15.10;99.90;;;;;;7384069;19;20007;-73
2024/01/24 10:26:13;;;;;;;31.55;4.90;;;15.20;99.90;;;;;;7405171;19;20022;-73
2024/01/24 10:28:42;;;;;;;34.75;4.13;;;15.40;99.90;;;;;;7383013;19;20024;-74
2024/01/24 10:31:12;;;;;;;25.45;4.57;;;15.40;99.90;;;;;;7382816;19;20007;-74
2024/01/24 10:33:43;;;;;;;35.40;5.53;;;15.50;99.90;;;;;;7382842;19;20007;-74
2024/01/24 10:36:12;;;;;;;40.20;5.38;;;15.50;99.90;;;;;;7384260;19;20006;-73
2024/01/24 10:38:44;;;;;;;43.53;5.50;;;15.40;99.90;;;;;;7383652;19;20003;-73
2024/01/24 10:41:16;;;;;;;41.35;6.03;;;15.10;99.90;;;;;;7403673;19;20020;-73
2024/01/24 10:43:52;;;;;;;33.80;5.10;;;15.20;99.90;;;;;;7383430;19;20006;-73
2024/01/24 10:46:21;;;;;;;38.05;4.78;;;15.40;99.90;;;;;;7382681;19;20082;-73
2024/01/24 10:48:54;;;;;;;32.70;5.28;;;15.20;99.90;;;;;;7382575;19;20377;-74
2024/01/24 10:51:22;;;;;;;42.97;5.43;;;15.20;99.90;;;;;;7382707;19;20062;-73
2024/01/24 10:53:52;;;;;;;38.67;5.47;;;15.40;99.90;;;;;;7381117;19;20231;-74
2024/01/24 10:56:23;;;;;;;44.72;5.28;;;15.50;99.90;;;;;;7381614;19;20006;-74
2024/01/24 10:58:52;;;;;;;33.45;4.97;;;15.70;99.90;;;;;;7403859;19;20413;-74
2024/01/24 11:01:21;;;;;;;29.55;4.35;;;15.60;99.90;;;;;;7381735;19;20095;-74
2024/01/24 11:03:54;;;;;;;38.08;5.40;;;15.50;99.90;;;;;;7382229;19;20007;-74
2024/01/24 11:06:27;;;;;;;35.22;5.03;;;15.50;99.90;;;;;;7382253;19;20006;-73
2024/01/24 11:09:05;;;;;;;42.58;5.05;;;15.30;99.90;;;;;;7382911;19;20011;-73
2024/01/24 11:11:38;;;;;;;30.98;4.82;;;15.30;99.90;;;;;;7381928;19;20011;-74
2024/01/24 11:14:06;;;;;;;37.55;4.78;;;15.40;99.90;;;;;;7401740;19;20066;-73
2024/01/24 11:16:41;;;;;;;34.72;4.97;;;15.50;99.90;;;;;;7381702;19;20020;-74
2024/01/24 11:19:30;;;;;;;27.38;4.57;;;15.30;99.90;;;;;;7381433;19;20019;-74
2024/01/24 11:22:04;;;;;;;34.70;4.40;;;15.40;99.90;;;;;;7381395;19;20223;-74
2024/01/24 11:24:52;;;;;;;42.17;4.82;;;15.50;99.90;;;;;;7381205;19;20010;-74
2024/01/24 11:27:35;;;;;;;34.13;4.55;;;15.30;99.90;;;;;;7382030;19;20013;-73
2024/01/24 11:30:17;;;;;;;30.42;4.97;;;15.40;99.90;;;;;;7380711;19;20006;-73
2024/01/24 11:33:04;;;;;;;38.72;5.38;;;15.20;99.90;;;;;;7381307;19;20006;-73
2024/01/24 11:35:40;;;;;;;28.38;4.68;;;15.30;99.90;;;;;;7381600;19;20002;-73
2024/01/24 11:38:29;;;;;;;34.08;4.45;;;15.20;99.90;;;;;;7403231;19;20007;-73
2024/01/24 11:41:02;;;;;;;37.38;4.43;;;15.30;99.90;;;;;;7381304;19;20390;-73
2024/01/24 11:43:32;;;;;;;34.85;4.65;;;15.40;99.90;;;;;;7380554;19;20003;-73
2024/01/24 11:46:03;;;;;;;38.63;4.75;;;15.60;99.90;;;;;;7380870;19;20006;-74
2024/01/24 11:48:33;;;;;;;34.47;5.25;;;15.70;99.90;;;;;;7381479;19;20003;-74
2024/01/24 11:51:08;;;;;;;37.00;4.47;;;15.70;99.90;;;;;;7380811;19;20369;-73
2024/01/24 11:53:36;;;;;;;35.97;4.47;;;15.80;99.90;;;;;;7378121;19;20068;-73
2024/01/24 11:56:07;;;;;;;35.88;5.00;;;15.60;99.90;;;;;;7402534;19;20010;-73
2024/01/24 11:58:36;;;;;;;37.58;4.18;;;15.50;99.90;;;;;;7384388;19;20070;-74
2024/01/24 12:01:06;;;;;;;36.80;4.47;;;15.50;99.90;;;;;;7384118;19;20002;-74
2024/01/24 12:03:35;;;;;;;28.95;4.63;;;15.50;99.90;;;;;;7383864;19;20386;-74
2024/01/24 12:06:07;;;;;;;37.60;5.45;;;15.60;99.90;;;;;;7385646;19;20378;-75
2024/01/24 12:08:35;;;;;;;33.05;5.10;;;15.60;99.90;;;;;;7384717;19;20006;-74
2024/01/24 12:11:04;;;;;;;29.90;5.70;;;15.40;99.90;;;;;;7404869;19;20015;-74
2024/01/24 12:13:33;;;;;;;38.05;5.32;;;15.50;99.90;;;;;;7378455;19;20078;-74
2024/01/24 12:16:02;;;;;;;46.17;5.68;;;15.60;99.90;;;;;;7380178;19;20015;-74
2024/01/24 12:18:31;;;;;;;44.78;4.68;;;15.50;99.90;;;;;;7380719;19;20130;-74
2024/01/24 12:21:02;;;;;;;40.72;5.95;;;15.40;99.90;;;;;;7380006;19;20006;-74
2024/01/24 12:23:33;;;;;;;29.92;5.03;;;15.40;99.90;;;;;;7379826;19;20007;-73
2024/01/24 12:26:02;;;;;;;;;;;15.60;99.90;;;;;;7402852;19;20058;-74
2024/01/24 12:28:33;;;;;;;40.75;5.07;;;15.70;99.90;;;;;;7379661;19;19910;-72
2024/01/24 12:31:06;;;;;;;37.92;5.45;;;15.80;99.90;;;;;;7380192;19;20014;-74
2024/01/24 12:33:35;;;;;;;29.23;4.65;;;15.70;99.90;;;;;;7379775;19;20010;-73
2024/01/24 12:36:06;;;;;;;41.22;6.75;;;15.80;99.90;;;;;;7379604;19;20003;-73
2024/01/24 12:38:39;;;;;;;32.25;4.80;;;15.80;99.90;;;;;;7379748;19;20010;-74
2024/01/24 12:41:08;;;;;;;40.42;4.97;;;15.80;99.90;;;;;;7400618;19;20387;-74
2024/01/24 12:43:38;;;;;;;31.35;5.03;;;15.80;99.90;;;;;;7378184;19;20405;-74
2024/01/24 12:46:08;;;;;;;44.28;5.10;;;15.90;99.90;;;;;;7378925;19;20401;-75
2024/01/24 12:48:37;;;;;;;44.85;5.18;;;15.90;99.90;;;;;;7379286;19;20307;-74
2024/01/24 12:51:06;;;;;;;28.13;5.30;;;15.90;99.90;;;;;;7378801;19;20006;-74
2024/01/24 12:53:35;;;;;;;33.35;4.75;;;15.90;99.90;;;;;;7377855;19;20259;-74
2024/01/24 12:56:07;;;;;;;35.85;5.18;;;15.60;99.90;;;;;;7401236;19;20019;-75
2024/01/24 12:58:36;;;;;;;35.90;4.95;;;15.90;99.90;;;;;;7378234;19;20067;-75